sensor_id;sensor_type;location;lat;lon;timestamp;P1;durP1;ratioP1;P2;durP2;ratioP2
10659;SDS011;5378;53.206;13.316;2023-05-19T00:02:27;5.63;;;1.60;;
10659;SDS011;5378;53.206;13.316;2023-05-19T00:05:18;6.93;;;1.80;;
10659;SDS011;5378;53.206;13.316;2023-05-19T00:08:07;9.13;;;1.60;;
10659;SDS011;5378;53.206;13.316;2023-05-19T00:10:57;13.47;;;2.07;;
10659;SDS011;5378;53.206;13.316;2023-05-19T00:13:45;4.50;;;1.90;;
10659;SDS011;5378;53.206;13.316;2023-05-19T00:16:34;5.83;;;1.40;;
10659;SDS011;5378;53.206;13.316;2023-05-19T00:19:23;9.80;;;2.17;;
10659;SDS011;5378;53.206;13.316;2023-05-19T00:22:10;10.73;;;2.10;;
10659;SDS011;5378;53.206;13.316;2023-05-19T00:24:57;1.73;;;0.97;;
10659;SDS011;5378;53.206;13.316;2023-05-19T00:27:46;9.90;;;2.23;;
10659;SDS011;5378;53.206;13.316;2023-05-19T00:30:33;5.47;;;1.60;;
10659;SDS011;5378;53.206;13.316;2023-05-19T00:33:20;3.50;;;1.43;;
10659;SDS011;5378;53.206;13.316;2023-05-19T00:36:08;4.83;;;1.80;;
10659;SDS011;5378;53.206;13.316;2023-05-19T00:38:55;2.80;;;1.23;;
10659;SDS011;5378;53.206;13.316;2023-05-19T00:41:42;3.73;;;2.20;;
10659;SDS011;5378;53.206;13.316;2023-05-19T00:44:30;6.13;;;1.03;;
10659;SDS011;5378;53.206;13.316;2023-05-19T00:47:17;16.67;;;2.20;;
10659;SDS011;5378;53.206;13.316;2023-05-19T00:50:04;4.00;;;1.67;;
10659;SDS011;5378;53.206;13.316;2023-05-19T00:52:52;3.20;;;1.50;;
10659;SDS011;5378;53.206;13.316;2023-05-19T00:55:39;2.03;;;1.20;;
10659;SDS011;5378;53.206;13.316;2023-05-19T00:58:26;5.23;;;1.63;;
10659;SDS011;5378;53.206;13.316;2023-05-19T01:01:16;9.30;;;2.17;;
10659;SDS011;5378;53.206;13.316;2023-05-19T01:04:05;3.60;;;1.87;;
10659;SDS011;5378;53.206;13.316;2023-05-19T01:06:54;5.70;;;2.00;;
10659;SDS011;5378;53.206;13.316;2023-05-19T01:09:42;3.40;;;1.60;;
10659;SDS011;5378;53.206;13.316;2023-05-19T01:12:29;8.00;;;1.90;;
10659;SDS011;5378;53.206;13.316;2023-05-19T01:15:16;5.47;;;2.33;;
10659;SDS011;5378;53.206;13.316;2023-05-19T01:18:07;5.43;;;2.83;;
10659;SDS011;5378;53.206;13.316;2023-05-19T01:21:00;6.90;;;3.07;;
10659;SDS011;5378;53.206;13.316;2023-05-19T01:24:05;8.37;;;3.63;;
10659;SDS011;5378;53.206;13.316;2023-05-19T01:27:13;7.67;;;3.40;;
10659;SDS011;5378;53.206;13.316;2023-05-19T01:30:17;13.63;;;3.47;;
10659;SDS011;5378;53.206;13.316;2023-05-19T01:33:14;9.03;;;3.10;;
10659;SDS011;5378;53.206;13.316;2023-05-19T01:36:02;7.20;;;3.60;;
10659;SDS011;5378;53.206;13.316;2023-05-19T01:38:51;14.53;;;4.03;;
10659;SDS011;5378;53.206;13.316;2023-05-19T01:41:42;8.83;;;3.77;;
10659;SDS011;5378;53.206;13.316;2023-05-19T01:44:31;11.97;;;4.07;;
10659;SDS011;5378;53.206;13.316;2023-05-19T01:47:21;18.00;;;4.30;;
10659;SDS011;5378;53.206;13.316;2023-05-19T01:50:09;7.87;;;3.53;;
10659;SDS011;5378;53.206;13.316;2023-05-19T01:52:57;6.27;;;3.23;;
10659;SDS011;5378;53.206;13.316;2023-05-19T01:55:48;5.40;;;3.60;;
10659;SDS011;5378;53.206;13.316;2023-05-19T01:58:39;14.33;;;4.10;;
10659;SDS011;5378;53.206;13.316;2023-05-19T02:01:32;10.20;;;3.80;;
10659;SDS011;5378;53.206;13.316;2023-05-19T02:04:32;7.80;;;3.33;;
10659;SDS011;5378;53.206;13.316;2023-05-19T02:07:25;9.00;;;4.67;;
10659;SDS011;5378;53.206;13.316;2023-05-19T02:10:22;8.07;;;3.33;;
10659;SDS011;5378;53.206;13.316;2023-05-19T02:13:15;14.20;;;3.87;;
10659;SDS011;5378;53.206;13.316;2023-05-19T02:16:05;11.73;;;3.70;;
10659;SDS011;5378;53.206;13.316;2023-05-19T02:18:54;6.60;;;3.33;;
10659;SDS011;5378;53.206;13.316;2023-05-19T02:21:42;8.50;;;2.80;;
10659;SDS011;5378;53.206;13.316;2023-05-19T02:24:30;6.70;;;2.93;;
10659;SDS011;5378;53.206;13.316;2023-05-19T02:27:17;9.00;;;2.83;;
10659;SDS011;5378;53.206;13.316;2023-05-19T02:30:04;8.70;;;2.60;;
10659;SDS011;5378;53.206;13.316;2023-05-19T02:32:54;5.47;;;2.40;;
10659;SDS011;5378;53.206;13.316;2023-05-19T02:35:41;4.70;;;2.27;;
10659;SDS011;5378;53.206;13.316;2023-05-19T02:38:29;3.27;;;2.23;;
10659;SDS011;5378;53.206;13.316;2023-05-19T02:41:17;5.70;;;2.73;;
10659;SDS011;5378;53.206;13.316;2023-05-19T02:44:04;4.00;;;2.53;;
10659;SDS011;5378;53.206;13.316;2023-05-19T02:46:51;7.50;;;2.47;;
10659;SDS011;5378;53.206;13.316;2023-05-19T02:49:38;4.57;;;2.33;;
10659;SDS011;5378;53.206;13.316;2023-05-19T02:52:27;1.83;;;1.60;;
10659;SDS011;5378;53.206;13.316;2023-05-19T02:55:15;4.60;;;1.40;;
10659;SDS011;5378;53.206;13.316;2023-05-19T02:58:02;3.27;;;1.40;;
10659;SDS011;5378;53.206;13.316;2023-05-19T03:00:49;8.20;;;2.03;;
10659;SDS011;5378;53.206;13.316;2023-05-19T03:03:37;8.50;;;1.57;;
10659;SDS011;5378;53.206;13.316;2023-05-19T03:06:24;2.43;;;1.43;;
10659;SDS011;5378;53.206;13.316;2023-05-19T03:09:11;2.30;;;1.33;;
10659;SDS011;5378;53.206;13.316;2023-05-19T03:12:00;7.23;;;1.97;;
10659;SDS011;5378;53.206;13.316;2023-05-19T03:14:49;5.43;;;1.60;;
10659;SDS011;5378;53.206;13.316;2023-05-19T03:17:36;4.77;;;2.00;;
10659;SDS011;5378;53.206;13.316;2023-05-19T03:20:23;1.30;;;1.00;;
10659;SDS011;5378;53.206;13.316;2023-05-19T03:23:12;4.23;;;1.83;;
10659;SDS011;5378;53.206;13.316;2023-05-19T03:25:59;8.40;;;1.77;;
10659;SDS011;5378;53.206;13.316;2023-05-19T03:28:47;3.13;;;1.73;;
10659;SDS011;5378;53.206;13.316;2023-05-19T03:31:35;3.63;;;1.47;;
10659;SDS011;5378;53.206;13.316;2023-05-19T03:34:23;6.77;;;1.50;;
10659;SDS011;5378;53.206;13.316;2023-05-19T03:37:10;3.50;;;1.40;;
10659;SDS011;5378;53.206;13.316;2023-05-19T03:39:58;11.90;;;2.10;;
10659;SDS011;5378;53.206;13.316;2023-05-19T03:42:45;4.50;;;1.87;;
10659;SDS011;5378;53.206;13.316;2023-05-19T03:45:35;3.47;;;1.30;;
10659;SDS011;5378;53.206;13.316;2023-05-19T03:48:37;6.43;;;1.57;;
10659;SDS011;5378;53.206;13.316;2023-05-19T03:51:45;4.40;;;1.60;;
10659;SDS011;5378;53.206;13.316;2023-05-19T03:54:45;8.20;;;1.17;;
10659;SDS011;5378;53.206;13.316;2023-05-19T03:57:32;4.90;;;1.33;;
10659;SDS011;5378;53.206;13.316;2023-05-19T04:00:19;5.93;;;1.50;;
10659;SDS011;5378;53.206;13.316;2023-05-19T04:03:09;2.50;;;1.53;;
10659;SDS011;5378;53.206;13.316;2023-05-19T04:05:58;2.23;;;1.50;;
10659;SDS011;5378;53.206;13.316;2023-05-19T04:08:45;5.37;;;1.87;;
10659;SDS011;5378;53.206;13.316;2023-05-19T04:11:32;3.03;;;1.20;;
10659;SDS011;5378;53.206;13.316;2023-05-19T04:14:19;2.70;;;1.57;;
10659;SDS011;5378;53.206;13.316;2023-05-19T04:17:05;2.70;;;1.00;;
10659;SDS011;5378;53.206;13.316;2023-05-19T04:19:55;3.03;;;1.37;;
10659;SDS011;5378;53.206;13.316;2023-05-19T04:22:43;1.90;;;1.10;;
10659;SDS011;5378;53.206;13.316;2023-05-19T04:25:30;1.60;;;0.93;;
10659;SDS011;5378;53.206;13.316;2023-05-19T04:28:18;3.43;;;1.43;;
10659;SDS011;5378;53.206;13.316;2023-05-19T04:31:06;5.37;;;1.50;;
10659;SDS011;5378;53.206;13.316;2023-05-19T04:33:55;5.53;;;1.53;;
10659;SDS011;5378;53.206;13.316;2023-05-19T04:36:44;3.93;;;1.67;;
10659;SDS011;5378;53.206;13.316;2023-05-19T04:39:32;5.23;;;1.37;;
10659;SDS011;5378;53.206;13.316;2023-05-19T04:42:19;2.77;;;1.40;;
10659;SDS011;5378;53.206;13.316;2023-05-19T04:45:07;2.93;;;1.40;;
10659;SDS011;5378;53.206;13.316;2023-05-19T04:47:59;6.50;;;1.20;;
10659;SDS011;5378;53.206;13.316;2023-05-19T04:50:46;3.67;;;1.40;;
10659;SDS011;5378;53.206;13.316;2023-05-19T04:53:35;8.30;;;1.40;;
10659;SDS011;5378;53.206;13.316;2023-05-19T04:56:26;6.00;;;1.93;;
10659;SDS011;5378;53.206;13.316;2023-05-19T04:59:14;3.33;;;1.43;;
10659;SDS011;5378;53.206;13.316;2023-05-19T05:02:02;4.80;;;1.30;;
10659;SDS011;5378;53.206;13.316;2023-05-19T05:04:49;8.73;;;1.63;;
10659;SDS011;5378;53.206;13.316;2023-05-19T05:07:39;4.33;;;1.43;;
10659;SDS011;5378;53.206;13.316;2023-05-19T05:10:27;3.10;;;1.27;;
10659;SDS011;5378;53.206;13.316;2023-05-19T05:13:15;3.33;;;1.60;;
10659;SDS011;5378;53.206;13.316;2023-05-19T05:16:03;3.10;;;1.73;;
10659;SDS011;5378;53.206;13.316;2023-05-19T05:18:52;4.23;;;1.57;;
10659;SDS011;5378;53.206;13.316;2023-05-19T05:21:40;3.40;;;1.23;;
10659;SDS011;5378;53.206;13.316;2023-05-19T05:24:28;2.93;;;0.97;;
10659;SDS011;5378;53.206;13.316;2023-05-19T05:27:19;1.93;;;0.93;;
10659;SDS011;5378;53.206;13.316;2023-05-19T05:30:07;2.77;;;1.90;;
10659;SDS011;5378;53.206;13.316;2023-05-19T05:32:55;3.37;;;1.37;;
10659;SDS011;5378;53.206;13.316;2023-05-19T05:35:50;4.87;;;1.37;;
10659;SDS011;5378;53.206;13.316;2023-05-19T05:38:38;3.73;;;1.27;;
10659;SDS011;5378;53.206;13.316;2023-05-19T05:41:25;3.80;;;1.53;;
10659;SDS011;5378;53.206;13.316;2023-05-19T05:44:14;1.93;;;0.70;;
10659;SDS011;5378;53.206;13.316;2023-05-19T05:47:03;8.37;;;1.70;;
10659;SDS011;5378;53.206;13.316;2023-05-19T05:49:50;3.93;;;1.40;;
10659;SDS011;5378;53.206;13.316;2023-05-19T05:52:38;3.33;;;1.10;;
10659;SDS011;5378;53.206;13.316;2023-05-19T05:55:27;4.87;;;1.40;;
10659;SDS011;5378;53.206;13.316;2023-05-19T05:58:17;12.53;;;1.33;;
10659;SDS011;5378;53.206;13.316;2023-05-19T06:01:07;4.03;;;1.27;;
10659;SDS011;5378;53.206;13.316;2023-05-19T06:03:55;2.60;;;1.40;;
10659;SDS011;5378;53.206;13.316;2023-05-19T06:06:43;3.30;;;0.80;;
10659;SDS011;5378;53.206;13.316;2023-05-19T06:09:36;3.10;;;1.37;;
10659;SDS011;5378;53.206;13.316;2023-05-19T06:12:24;2.13;;;1.40;;
10659;SDS011;5378;53.206;13.316;2023-05-19T06:15:12;2.97;;;1.47;;
10659;SDS011;5378;53.206;13.316;2023-05-19T06:18:23;4.23;;;1.30;;
10659;SDS011;5378;53.206;13.316;2023-05-19T06:21:10;1.50;;;1.20;;
10659;SDS011;5378;53.206;13.316;2023-05-19T06:23:59;2.40;;;1.30;;
10659;SDS011;5378;53.206;13.316;2023-05-19T06:26:46;2.50;;;1.07;;
10659;SDS011;5378;53.206;13.316;2023-05-19T06:29:36;4.30;;;1.60;;
10659;SDS011;5378;53.206;13.316;2023-05-19T06:32:25;3.27;;;1.40;;
10659;SDS011;5378;53.206;13.316;2023-05-19T06:35:13;3.03;;;1.90;;
10659;SDS011;5378;53.206;13.316;2023-05-19T06:38:01;4.00;;;1.10;;
10659;SDS011;5378;53.206;13.316;2023-05-19T06:40:47;3.20;;;1.00;;
10659;SDS011;5378;53.206;13.316;2023-05-19T06:43:34;1.93;;;1.23;;
10659;SDS011;5378;53.206;13.316;2023-05-19T06:46:22;3.70;;;1.03;;
10659;SDS011;5378;53.206;13.316;2023-05-19T06:49:09;1.93;;;1.10;;
10659;SDS011;5378;53.206;13.316;2023-05-19T06:52:02;1.67;;;1.00;;
10659;SDS011;5378;53.206;13.316;2023-05-19T06:54:49;4.20;;;1.33;;
10659;SDS011;5378;53.206;13.316;2023-05-19T06:57:36;1.30;;;0.57;;
10659;SDS011;5378;53.206;13.316;2023-05-19T07:00:23;3.30;;;1.60;;
10659;SDS011;5378;53.206;13.316;2023-05-19T07:03:11;1.57;;;1.20;;
10659;SDS011;5378;53.206;13.316;2023-05-19T07:05:58;2.10;;;1.17;;
10659;SDS011;5378;53.206;13.316;2023-05-19T07:08:47;3.40;;;1.40;;
10659;SDS011;5378;53.206;13.316;2023-05-19T07:11:35;3.60;;;0.83;;
10659;SDS011;5378;53.206;13.316;2023-05-19T07:14:22;3.67;;;1.10;;
10659;SDS011;5378;53.206;13.316;2023-05-19T07:17:09;4.97;;;1.43;;
10659;SDS011;5378;53.206;13.316;2023-05-19T07:20:01;1.93;;;1.00;;
10659;SDS011;5378;53.206;13.316;2023-05-19T07:22:51;1.53;;;0.90;;
10659;SDS011;5378;53.206;13.316;2023-05-19T07:25:39;1.80;;;1.00;;
10659;SDS011;5378;53.206;13.316;2023-05-19T07:28:26;3.43;;;1.00;;
10659;SDS011;5378;53.206;13.316;2023-05-19T07:31:13;5.20;;;1.37;;
10659;SDS011;5378;53.206;13.316;2023-05-19T07:34:01;4.10;;;1.27;;
10659;SDS011;5378;53.206;13.316;2023-05-19T07:36:48;8.87;;;0.93;;
10659;SDS011;5378;53.206;13.316;2023-05-19T07:39:35;1.57;;;1.00;;
10659;SDS011;5378;53.206;13.316;2023-05-19T07:42:24;1.53;;;1.10;;
10659;SDS011;5378;53.206;13.316;2023-05-19T07:45:11;2.87;;;1.07;;
10659;SDS011;5378;53.206;13.316;2023-05-19T07:47:57;2.43;;;1.07;;
10659;SDS011;5378;53.206;13.316;2023-05-19T07:50:45;2.97;;;1.20;;
10659;SDS011;5378;53.206;13.316;2023-05-19T07:53:32;1.47;;;1.00;;
10659;SDS011;5378;53.206;13.316;2023-05-19T07:56:19;2.40;;;0.97;;
10659;SDS011;5378;53.206;13.316;2023-05-19T07:59:07;5.00;;;1.30;;
10659;SDS011;5378;53.206;13.316;2023-05-19T08:01:54;1.97;;;0.87;;
10659;SDS011;5378;53.206;13.316;2023-05-19T08:04:41;1.23;;;0.77;;
10659;SDS011;5378;53.206;13.316;2023-05-19T08:07:28;1.10;;;0.83;;
10659;SDS011;5378;53.206;13.316;2023-05-19T08:10:15;2.20;;;1.30;;
10659;SDS011;5378;53.206;13.316;2023-05-19T08:13:03;1.83;;;0.90;;
10659;SDS011;5378;53.206;13.316;2023-05-19T08:15:51;1.43;;;0.83;;
10659;SDS011;5378;53.206;13.316;2023-05-19T08:18:43;1.07;;;0.90;;
10659;SDS011;5378;53.206;13.316;2023-05-19T08:21:30;1.97;;;1.00;;
10659;SDS011;5378;53.206;13.316;2023-05-19T08:24:18;2.70;;;1.03;;
10659;SDS011;5378;53.206;13.316;2023-05-19T08:27:05;2.60;;;0.70;;
10659;SDS011;5378;53.206;13.316;2023-05-19T08:29:52;9.27;;;1.00;;
10659;SDS011;5378;53.206;13.316;2023-05-19T08:32:41;2.90;;;0.90;;
10659;SDS011;5378;53.206;13.316;2023-05-19T08:35:28;0.90;;;0.70;;
10659;SDS011;5378;53.206;13.316;2023-05-19T08:38:15;1.37;;;0.70;;
10659;SDS011;5378;53.206;13.316;2023-05-19T08:41:02;2.23;;;1.00;;
10659;SDS011;5378;53.206;13.316;2023-05-19T08:43:50;2.40;;;1.03;;
10659;SDS011;5378;53.206;13.316;2023-05-19T08:46:37;1.50;;;0.70;;
10659;SDS011;5378;53.206;13.316;2023-05-19T08:49:26;1.70;;;1.00;;
10659;SDS011;5378;53.206;13.316;2023-05-19T08:52:18;0.80;;;0.47;;
10659;SDS011;5378;53.206;13.316;2023-05-19T08:55:14;4.87;;;1.17;;
10659;SDS011;5378;53.206;13.316;2023-05-19T08:58:12;2.80;;;0.90;;
10659;SDS011;5378;53.206;13.316;2023-05-19T09:01:01;3.20;;;0.77;;
10659;SDS011;5378;53.206;13.316;2023-05-19T09:03:48;1.17;;;0.80;;
10659;SDS011;5378;53.206;13.316;2023-05-19T09:06:37;1.40;;;0.90;;
10659;SDS011;5378;53.206;13.316;2023-05-19T09:09:26;4.10;;;1.00;;
10659;SDS011;5378;53.206;13.316;2023-05-19T09:12:14;1.90;;;1.03;;
10659;SDS011;5378;53.206;13.316;2023-05-19T09:15:01;2.30;;;0.90;;
10659;SDS011;5378;53.206;13.316;2023-05-19T09:17:49;6.80;;;0.80;;
10659;SDS011;5378;53.206;13.316;2023-05-19T09:20:36;1.27;;;0.70;;
10659;SDS011;5378;53.206;13.316;2023-05-19T09:23:27;3.60;;;0.53;;
10659;SDS011;5378;53.206;13.316;2023-05-19T09:26:16;1.10;;;0.60;;
10659;SDS011;5378;53.206;13.316;2023-05-19T09:29:09;2.20;;;1.13;;
10659;SDS011;5378;53.206;13.316;2023-05-19T09:31:56;1.13;;;0.57;;
10659;SDS011;5378;53.206;13.316;2023-05-19T09:34:45;2.03;;;1.00;;
10659;SDS011;5378;53.206;13.316;2023-05-19T09:37:33;1.70;;;1.10;;
10659;SDS011;5378;53.206;13.316;2023-05-19T09:40:21;0.90;;;0.60;;
10659;SDS011;5378;53.206;13.316;2023-05-19T09:43:14;3.23;;;1.00;;
10659;SDS011;5378;53.206;13.316;2023-05-19T09:46:04;2.00;;;0.97;;
10659;SDS011;5378;53.206;13.316;2023-05-19T09:48:55;1.97;;;0.70;;
10659;SDS011;5378;53.206;13.316;2023-05-19T09:51:43;1.50;;;0.90;;
10659;SDS011;5378;53.206;13.316;2023-05-19T09:54:30;1.77;;;0.73;;
10659;SDS011;5378;53.206;13.316;2023-05-19T09:57:25;2.13;;;1.20;;
10659;SDS011;5378;53.206;13.316;2023-05-19T10:00:12;2.30;;;1.43;;
10659;SDS011;5378;53.206;13.316;2023-05-19T10:03:02;1.23;;;0.70;;
10659;SDS011;5378;53.206;13.316;2023-05-19T10:05:50;1.10;;;0.60;;
10659;SDS011;5378;53.206;13.316;2023-05-19T10:08:39;1.77;;;0.80;;
10659;SDS011;5378;53.206;13.316;2023-05-19T10:11:27;2.17;;;0.70;;
10659;SDS011;5378;53.206;13.316;2023-05-19T10:14:17;1.93;;;0.80;;
10659;SDS011;5378;53.206;13.316;2023-05-19T10:17:05;2.10;;;1.07;;
10659;SDS011;5378;53.206;13.316;2023-05-19T10:19:53;3.23;;;1.30;;
10659;SDS011;5378;53.206;13.316;2023-05-19T10:22:40;1.37;;;1.00;;
10659;SDS011;5378;53.206;13.316;2023-05-19T10:25:28;3.20;;;1.63;;
10659;SDS011;5378;53.206;13.316;2023-05-19T10:28:17;2.47;;;1.20;;
10659;SDS011;5378;53.206;13.316;2023-05-19T10:31:11;1.00;;;0.60;;
10659;SDS011;5378;53.206;13.316;2023-05-19T10:34:07;2.40;;;0.80;;
10659;SDS011;5378;53.206;13.316;2023-05-19T10:37:11;1.47;;;0.87;;
10659;SDS011;5378;53.206;13.316;2023-05-19T10:40:04;1.83;;;0.77;;
10659;SDS011;5378;53.206;13.316;2023-05-19T10:43:00;8.13;;;0.70;;
10659;SDS011;5378;53.206;13.316;2023-05-19T10:46:01;1.90;;;0.90;;
10659;SDS011;5378;53.206;13.316;2023-05-19T10:48:51;1.83;;;0.80;;
10659;SDS011;5378;53.206;13.316;2023-05-19T10:51:39;1.30;;;0.67;;
10659;SDS011;5378;53.206;13.316;2023-05-19T10:54:37;1.87;;;0.77;;
10659;SDS011;5378;53.206;13.316;2023-05-19T10:57:27;1.10;;;0.80;;
10659;SDS011;5378;53.206;13.316;2023-05-19T11:00:25;0.80;;;0.50;;
10659;SDS011;5378;53.206;13.316;2023-05-19T11:03:13;2.03;;;0.87;;
10659;SDS011;5378;53.206;13.316;2023-05-19T11:06:16;1.33;;;0.90;;
10659;SDS011;5378;53.206;13.316;2023-05-19T11:09:11;0.70;;;0.60;;
10659;SDS011;5378;53.206;13.316;2023-05-19T11:12:01;0.87;;;0.53;;
10659;SDS011;5378;53.206;13.316;2023-05-19T11:14:51;12.20;;;0.70;;
10659;SDS011;5378;53.206;13.316;2023-05-19T11:17:38;3.80;;;0.70;;
10659;SDS011;5378;53.206;13.316;2023-05-19T11:20:27;1.10;;;0.70;;
10659;SDS011;5378;53.206;13.316;2023-05-19T11:23:16;2.43;;;1.30;;
10659;SDS011;5378;53.206;13.316;2023-05-19T11:26:06;14.67;;;1.00;;
10659;SDS011;5378;53.206;13.316;2023-05-19T11:28:54;2.93;;;0.90;;
10659;SDS011;5378;53.206;13.316;2023-05-19T11:31:42;1.40;;;0.70;;
10659;SDS011;5378;53.206;13.316;2023-05-19T11:34:29;1.37;;;0.97;;
10659;SDS011;5378;53.206;13.316;2023-05-19T11:37:17;2.07;;;0.60;;
10659;SDS011;5378;53.206;13.316;2023-05-19T11:40:06;0.93;;;0.77;;
10659;SDS011;5378;53.206;13.316;2023-05-19T11:42:55;2.83;;;1.00;;
10659;SDS011;5378;53.206;13.316;2023-05-19T11:45:42;3.27;;;0.70;;
10659;SDS011;5378;53.206;13.316;2023-05-19T11:48:30;2.30;;;1.00;;
10659;SDS011;5378;53.206;13.316;2023-05-19T11:51:19;1.20;;;0.67;;
10659;SDS011;5378;53.206;13.316;2023-05-19T11:54:07;0.90;;;0.60;;
10659;SDS011;5378;53.206;13.316;2023-05-19T11:56:56;2.60;;;0.70;;
10659;SDS011;5378;53.206;13.316;2023-05-19T11:59:47;0.90;;;0.50;;
10659;SDS011;5378;53.206;13.316;2023-05-19T12:02:36;1.37;;;0.80;;
10659;SDS011;5378;53.206;13.316;2023-05-19T12:05:24;1.90;;;0.93;;
10659;SDS011;5378;53.206;13.316;2023-05-19T12:08:12;1.03;;;0.67;;
10659;SDS011;5378;53.206;13.316;2023-05-19T12:11:00;1.10;;;0.70;;
10659;SDS011;5378;53.206;13.316;2023-05-19T12:13:48;1.13;;;0.50;;
10659;SDS011;5378;53.206;13.316;2023-05-19T12:16:39;1.20;;;0.77;;
10659;SDS011;5378;53.206;13.316;2023-05-19T12:19:26;2.80;;;1.00;;
10659;SDS011;5378;53.206;13.316;2023-05-19T12:22:14;2.83;;;1.10;;
10659;SDS011;5378;53.206;13.316;2023-05-19T12:25:01;1.30;;;0.87;;
10659;SDS011;5378;53.206;13.316;2023-05-19T12:27:50;1.23;;;0.80;;
10659;SDS011;5378;53.206;13.316;2023-05-19T12:30:42;1.40;;;0.43;;
10659;SDS011;5378;53.206;13.316;2023-05-19T12:33:34;0.90;;;0.60;;
10659;SDS011;5378;53.206;13.316;2023-05-19T12:36:22;1.13;;;0.70;;
10659;SDS011;5378;53.206;13.316;2023-05-19T12:39:11;1.30;;;0.70;;
10659;SDS011;5378;53.206;13.316;2023-05-19T12:42:00;1.67;;;0.63;;
10659;SDS011;5378;53.206;13.316;2023-05-19T12:44:49;1.93;;;1.10;;
10659;SDS011;5378;53.206;13.316;2023-05-19T12:47:38;1.00;;;0.80;;
10659;SDS011;5378;53.206;13.316;2023-05-19T12:50:28;1.37;;;0.90;;
10659;SDS011;5378;53.206;13.316;2023-05-19T12:53:17;1.43;;;1.10;;
10659;SDS011;5378;53.206;13.316;2023-05-19T12:56:09;3.23;;;0.80;;
10659;SDS011;5378;53.206;13.316;2023-05-19T12:58:59;1.83;;;0.80;;
10659;SDS011;5378;53.206;13.316;2023-05-19T13:01:53;1.87;;;1.10;;
10659;SDS011;5378;53.206;13.316;2023-05-19T13:04:43;0.80;;;0.60;;
10659;SDS011;5378;53.206;13.316;2023-05-19T13:07:30;1.00;;;0.60;;
10659;SDS011;5378;53.206;13.316;2023-05-19T13:10:17;4.60;;;0.80;;
10659;SDS011;5378;53.206;13.316;2023-05-19T13:13:04;1.67;;;1.00;;
10659;SDS011;5378;53.206;13.316;2023-05-19T13:16:11;1.50;;;1.03;;
10659;SDS011;5378;53.206;13.316;2023-05-19T13:19:18;1.17;;;0.70;;
10659;SDS011;5378;53.206;13.316;2023-05-19T13:22:09;1.07;;;0.90;;
10659;SDS011;5378;53.206;13.316;2023-05-19T13:24:56;1.30;;;0.70;;
10659;SDS011;5378;53.206;13.316;2023-05-19T13:27:44;1.70;;;0.87;;
10659;SDS011;5378;53.206;13.316;2023-05-19T13:30:33;1.47;;;0.60;;
10659;SDS011;5378;53.206;13.316;2023-05-19T13:33:21;1.70;;;0.80;;
10659;SDS011;5378;53.206;13.316;2023-05-19T13:36:08;2.33;;;0.70;;
10659;SDS011;5378;53.206;13.316;2023-05-19T13:38:56;3.00;;;1.10;;
10659;SDS011;5378;53.206;13.316;2023-05-19T13:41:45;3.70;;;0.80;;
10659;SDS011;5378;53.206;13.316;2023-05-19T13:44:32;1.10;;;0.60;;
10659;SDS011;5378;53.206;13.316;2023-05-19T13:47:19;1.37;;;0.83;;
10659;SDS011;5378;53.206;13.316;2023-05-19T13:50:06;1.57;;;0.80;;
10659;SDS011;5378;53.206;13.316;2023-05-19T13:52:54;1.70;;;0.80;;
10659;SDS011;5378;53.206;13.316;2023-05-19T13:55:42;1.03;;;0.70;;
10659;SDS011;5378;53.206;13.316;2023-05-19T13:58:29;0.80;;;0.70;;
10659;SDS011;5378;53.206;13.316;2023-05-19T14:01:16;2.90;;;1.00;;
10659;SDS011;5378;53.206;13.316;2023-05-19T14:04:04;1.67;;;0.90;;
10659;SDS011;5378;53.206;13.316;2023-05-19T14:06:51;1.60;;;0.70;;
10659;SDS011;5378;53.206;13.316;2023-05-19T14:09:38;1.10;;;0.93;;
10659;SDS011;5378;53.206;13.316;2023-05-19T14:12:27;2.97;;;1.07;;
10659;SDS011;5378;53.206;13.316;2023-05-19T14:15:21;1.20;;;0.93;;
10659;SDS011;5378;53.206;13.316;2023-05-19T14:18:08;4.83;;;0.77;;
10659;SDS011;5378;53.206;13.316;2023-05-19T14:20:55;1.10;;;0.60;;
10659;SDS011;5378;53.206;13.316;2023-05-19T14:23:42;1.90;;;0.93;;
10659;SDS011;5378;53.206;13.316;2023-05-19T14:26:29;0.87;;;0.80;;
10659;SDS011;5378;53.206;13.316;2023-05-19T14:29:17;3.30;;;1.20;;
10659;SDS011;5378;53.206;13.316;2023-05-19T14:32:05;1.60;;;0.97;;
10659;SDS011;5378;53.206;13.316;2023-05-19T14:34:53;2.93;;;0.77;;
10659;SDS011;5378;53.206;13.316;2023-05-19T14:37:40;1.57;;;1.10;;
10659;SDS011;5378;53.206;13.316;2023-05-19T14:40:27;1.07;;;0.67;;
10659;SDS011;5378;53.206;13.316;2023-05-19T14:43:14;1.27;;;0.73;;
10659;SDS011;5378;53.206;13.316;2023-05-19T14:46:02;1.53;;;0.60;;
10659;SDS011;5378;53.206;13.316;2023-05-19T14:48:50;1.70;;;0.97;;
10659;SDS011;5378;53.206;13.316;2023-05-19T14:51:37;2.30;;;0.60;;
10659;SDS011;5378;53.206;13.316;2023-05-19T14:54:24;0.90;;;0.60;;
10659;SDS011;5378;53.206;13.316;2023-05-19T14:57:10;1.87;;;0.87;;
10659;SDS011;5378;53.206;13.316;2023-05-19T14:59:57;0.97;;;0.70;;
10659;SDS011;5378;53.206;13.316;2023-05-19T15:02:46;1.17;;;0.77;;
10659;SDS011;5378;53.206;13.316;2023-05-19T15:05:35;3.17;;;1.63;;
10659;SDS011;5378;53.206;13.316;2023-05-19T15:08:24;2.07;;;0.90;;
10659;SDS011;5378;53.206;13.316;2023-05-19T15:11:12;1.03;;;0.50;;
10659;SDS011;5378;53.206;13.316;2023-05-19T15:13:58;1.53;;;0.87;;
10659;SDS011;5378;53.206;13.316;2023-05-19T15:16:45;1.23;;;0.83;;
10659;SDS011;5378;53.206;13.316;2023-05-19T15:19:34;1.57;;;1.00;;
10659;SDS011;5378;53.206;13.316;2023-05-19T15:22:21;1.53;;;0.70;;
10659;SDS011;5378;53.206;13.316;2023-05-19T15:25:08;4.47;;;0.70;;
10659;SDS011;5378;53.206;13.316;2023-05-19T15:27:55;1.30;;;0.80;;
10659;SDS011;5378;53.206;13.316;2023-05-19T15:30:42;0.70;;;0.50;;
10659;SDS011;5378;53.206;13.316;2023-05-19T15:33:30;2.03;;;0.70;;
10659;SDS011;5378;53.206;13.316;2023-05-19T15:36:18;2.50;;;0.67;;
10659;SDS011;5378;53.206;13.316;2023-05-19T15:39:05;1.33;;;1.10;;
10659;SDS011;5378;53.206;13.316;2023-05-19T15:41:52;1.13;;;0.53;;
10659;SDS011;5378;53.206;13.316;2023-05-19T15:44:39;1.70;;;0.53;;
10659;SDS011;5378;53.206;13.316;2023-05-19T15:47:26;1.43;;;0.90;;
10659;SDS011;5378;53.206;13.316;2023-05-19T15:50:13;1.53;;;0.83;;
10659;SDS011;5378;53.206;13.316;2023-05-19T15:53:02;1.67;;;0.80;;
10659;SDS011;5378;53.206;13.316;2023-05-19T15:55:52;1.23;;;0.70;;
10659;SDS011;5378;53.206;13.316;2023-05-19T15:58:39;0.67;;;0.50;;
10659;SDS011;5378;53.206;13.316;2023-05-19T16:01:26;1.37;;;0.63;;
10659;SDS011;5378;53.206;13.316;2023-05-19T16:04:13;1.43;;;0.90;;
10659;SDS011;5378;53.206;13.316;2023-05-19T16:07:01;1.60;;;0.90;;
10659;SDS011;5378;53.206;13.316;2023-05-19T16:09:50;2.50;;;0.73;;
10659;SDS011;5378;53.206;13.316;2023-05-19T16:12:36;1.43;;;0.70;;
10659;SDS011;5378;53.206;13.316;2023-05-19T16:15:23;1.27;;;0.90;;
10659;SDS011;5378;53.206;13.316;2023-05-19T16:18:10;1.03;;;0.70;;
10659;SDS011;5378;53.206;13.316;2023-05-19T16:20:57;2.27;;;0.83;;
10659;SDS011;5378;53.206;13.316;2023-05-19T16:23:44;1.77;;;1.03;;
10659;SDS011;5378;53.206;13.316;2023-05-19T16:26:32;3.53;;;1.13;;
10659;SDS011;5378;53.206;13.316;2023-05-19T16:29:20;1.07;;;0.63;;
10659;SDS011;5378;53.206;13.316;2023-05-19T16:32:07;3.37;;;0.70;;
10659;SDS011;5378;53.206;13.316;2023-05-19T16:34:54;1.27;;;0.70;;
10659;SDS011;5378;53.206;13.316;2023-05-19T16:37:41;1.37;;;0.97;;
10659;SDS011;5378;53.206;13.316;2023-05-19T16:40:28;1.80;;;0.83;;
10659;SDS011;5378;53.206;13.316;2023-05-19T16:43:17;17.30;;;1.20;;
10659;SDS011;5378;53.206;13.316;2023-05-19T16:46:04;3.10;;;0.70;;
10659;SDS011;5378;53.206;13.316;2023-05-19T16:48:51;1.00;;;0.50;;
10659;SDS011;5378;53.206;13.316;2023-05-19T16:51:38;2.00;;;1.20;;
10659;SDS011;5378;53.206;13.316;2023-05-19T16:54:25;0.90;;;0.50;;
10659;SDS011;5378;53.206;13.316;2023-05-19T16:57:13;2.03;;;0.73;;
10659;SDS011;5378;53.206;13.316;2023-05-19T17:00:02;0.80;;;0.60;;